Posterholt, Netherlands
Current Conditions -  °F | °C
As of 10:55 AM on Sunday 23 Nov 2014 (Local Time) from EHBK Reporting Station
Clear Clear  
Wind Chill: 55°   Ceiling: Unl
Heat Index: 55°   Visibility: 6mi
Dew Point: 48°   Wind: 5mph
Humidity: 77%   Direction: 170°S
Pressure: 30.03"   Gusts: NA
Location:  51.12°N, 6.03°E
Report Text: EHBK 230955Z AUTO 17004KT 110V210 9999 NCD 13/09 Q1017 NOSIG
Loading
Personal Weather Stations






























Interactive Weather Map New forecast layout! Learn more

10-Day Weather Forecast

Advertisements
Track Severe Weather on mobile